Time;durP1;ratioP1;P1;durP2;ratioP2;P2;SDS_P1;SDS_P2;PMS_P1;PMS_P2;Temp;Humidity;BMP_temperature;BMP_pressure;BME280_temperature;BME280_humidity;BME280_pressure;Samples;Min_cycle;Max_cycle;Signal;HPM_P1;HPM_P2
2022/05/14 00:01:26;;;;;;;7.28;3.10;;;8.10;99.90;;;;;;5052514;28;20025;-64
2022/05/14 00:04:50;;;;;;;4.60;3.00;;;8.00;99.90;;;;;;5056754;28;20041;-63
2022/05/14 00:08:16;;;;;;;8.07;3.05;;;7.90;99.90;;;;;;5067783;28;20072;-63
2022/05/14 00:14:24;;;;;;;4.95;2.78;;;7.80;99.90;;;;;;5064817;28;20036;-64
2022/05/14 00:16:50;;;;;;;3.38;2.55;;;7.70;99.90;;;;;;5049742;28;20037;-63
2022/05/14 00:19:16;;;;;;;3.05;2.45;;;7.70;99.90;;;;;;5049206;28;20397;-63
2022/05/14 00:21:42;;;;;;;7.03;3.30;;;7.70;99.90;;;;;;5068470;28;20028;-63
2022/05/14 00:24:09;;;;;;;4.57;2.80;;;7.70;99.90;;;;;;5047757;28;20025;-63
2022/05/14 00:26:36;;;;;;;6.82;3.25;;;7.60;99.90;;;;;;5068484;28;20539;-63
2022/05/14 00:29:03;;;;;;;4.80;2.47;;;7.70;99.90;;;;;;5047433;28;20068;-63
2022/05/14 00:31:29;;;;;;;4.20;3.22;;;7.70;99.90;;;;;;5068123;28;20047;-63
2022/05/14 00:33:55;;;;;;;5.30;3.00;;;7.90;99.90;;;;;;5047649;28;20033;-63
2022/05/14 00:36:21;;;;;;;11.95;3.90;;;8.00;99.90;;;;;;5068047;28;20040;-63
2022/05/14 00:38:46;;;;;;;6.35;3.00;;;8.10;99.90;;;;;;5047701;28;20052;-64
2022/05/14 00:41:12;;;;;;;3.05;2.75;;;8.20;99.90;;;;;;5068081;28;20396;-63
2022/05/14 00:43:51;;;;;;;5.22;2.83;;;8.30;99.90;;;;;;5047511;28;20039;-63
2022/05/14 00:46:28;;;;;;;3.45;2.60;;;8.40;99.90;;;;;;5068498;28;20032;-63
2022/05/14 00:48:57;;;;;;;6.60;2.83;;;8.40;99.90;;;;;;5041516;28;20029;-64
2022/05/14 00:51:27;;;;;;;5.43;2.75;;;8.30;99.90;;;;;;5068230;28;20127;-64
2022/05/14 00:53:57;;;;;;;4.68;2.85;;;8.30;99.90;;;;;;5046672;28;20032;-64
2022/05/14 00:56:28;;;;;;;6.00;3.10;;;8.30;99.90;;;;;;5028835;28;20036;-64
2022/05/14 00:59:06;;;;;;;4.35;2.50;;;8.20;99.90;;;;;;5041355;28;20037;-63
2022/05/14 01:02:11;;;;;;;5.10;2.55;;;8.20;99.90;;;;;;5060858;28;20028;-64
2022/05/14 01:05:36;;;;;;;5.15;3.08;;;8.20;99.90;;;;;;5056828;28;20537;-63
2022/05/14 01:09:04;;;;;;;4.95;2.95;;;8.20;99.90;;;;;;5044836;28;20028;-64
2022/05/14 01:12:27;;;;;;;3.75;2.90;;;8.20;99.90;;;;;;5064527;28;20045;-63
2022/05/14 01:15:55;;;;;;;5.18;2.65;;;8.20;99.90;;;;;;5064395;28;20032;-64
2022/05/14 01:19:21;;;;;;;5.10;3.08;;;8.20;99.90;;;;;;5042131;28;20045;-63
2022/05/14 01:22:26;;;;;;;7.38;2.70;;;8.30;99.90;;;;;;5056589;28;20028;-64
2022/05/14 01:29:02;;;;;;;4.63;2.40;;;8.50;99.90;;;;;;5036588;28;20106;-63
2022/05/14 01:32:27;;;;;;;5.35;2.72;;;8.60;99.90;;;;;;5056412;28;20106;-63
2022/05/14 01:35:56;;;;;;;3.22;2.80;;;8.70;99.90;;;;;;5056443;28;20064;-63
2022/05/14 01:39:01;;;;;;;;;;;8.80;99.90;;;;;;5050147;28;20128;-63
2022/05/14 01:42:26;;;;;;;5.30;2.65;;;8.90;99.90;;;;;;5028425;28;19920;-62
2022/05/14 01:45:52;;;;;;;4.15;2.25;;;9.00;99.90;;;;;;5057456;28;20033;-63
2022/05/14 01:49:17;;;;;;;4.88;2.90;;;9.10;99.90;;;;;;5050062;28;20037;-64
2022/05/14 01:52:42;;;;;;;4.03;2.78;;;9.20;99.90;;;;;;5062109;28;20047;-64
2022/05/14 01:56:08;;;;;;;5.72;2.60;;;9.40;99.90;;;;;;5062186;28;20065;-64
2022/05/14 01:59:33;;;;;;;4.57;2.63;;;9.50;99.90;;;;;;5050155;28;20057;-64
2022/05/14 02:02:58;;;;;;;3.65;2.63;;;9.60;99.90;;;;;;5053366;28;20400;-64
2022/05/14 02:06:24;;;;;;;4.47;2.65;;;9.80;99.90;;;;;;5065907;28;20044;-63
2022/05/14 02:09:49;;;;;;;5.45;2.72;;;9.90;99.90;;;;;;5042499;28;20496;-64
2022/05/14 02:13:15;;;;;;;3.10;2.40;;;10.00;99.90;;;;;;5029512;28;20090;-64
2022/05/14 02:16:40;;;;;;;6.60;2.50;;;10.10;99.90;;;;;;5027805;28;20033;-64
2022/05/14 02:20:05;;;;;;;4.47;3.35;;;10.10;99.90;;;;;;5044710;28;20037;-64
2022/05/14 02:23:31;;;;;;;5.10;2.88;;;10.10;99.90;;;;;;5048721;28;20041;-64
2022/05/14 02:26:56;;;;;;;6.45;3.58;;;10.10;99.90;;;;;;5027708;28;20044;-64
2022/05/14 02:30:21;;;;;;;5.65;3.33;;;10.20;99.90;;;;;;5062008;28;20041;-63
2022/05/14 02:33:47;;;;;;;6.60;3.10;;;10.20;99.90;;;;;;5049020;28;20072;-64
2022/05/14 02:37:12;;;;;;;5.22;3.03;;;10.20;99.90;;;;;;5059404;28;20499;-64
2022/05/14 02:40:37;;;;;;;3.63;2.50;;;10.20;99.90;;;;;;5059701;28;20032;-64
2022/05/14 02:44:03;;;;;;;6.03;2.50;;;10.10;99.90;;;;;;5047903;28;20033;-64
2022/05/14 02:47:30;;;;;;;7.25;2.40;;;10.00;99.90;;;;;;5067292;28;20075;-64
2022/05/14 02:50:54;;;;;;;7.15;3.42;;;10.10;99.90;;;;;;5030912;28;20033;-63
2022/05/14 02:54:19;;;;;;;7.88;3.65;;;10.10;99.90;;;;;;5045360;28;20485;-64
2022/05/14 02:57:44;;;;;;;7.25;2.60;;;10.10;99.90;;;;;;5059275;28;20098;-64
2022/05/14 03:01:10;;;;;;;4.15;2.83;;;10.20;99.90;;;;;;5052282;28;20032;-63
2022/05/14 03:04:38;;;;;;;6.05;3.20;;;10.20;99.90;;;;;;5041529;28;20040;-64
2022/05/14 03:08:03;;;;;;;6.70;3.53;;;10.30;99.90;;;;;;5029727;28;20039;-64
2022/05/14 03:11:29;;;;;;;5.25;2.70;;;10.30;99.90;;;;;;5059098;28;20427;-60
2022/05/14 03:14:54;;;;;;;4.72;3.10;;;10.10;99.90;;;;;;5047193;28;20041;-60
2022/05/14 03:18:19;;;;;;;5.75;3.83;;;10.00;99.90;;;;;;5064644;28;20029;-60
2022/05/14 03:21:44;;;;;;;6.05;2.90;;;10.00;99.90;;;;;;5051490;28;20065;-61
2022/05/14 03:25:10;;;;;;;6.13;2.92;;;9.80;99.90;;;;;;5062404;28;20028;-61
2022/05/14 03:28:35;;;;;;;5.50;3.10;;;9.80;99.90;;;;;;5064674;28;20391;-60
2022/05/14 03:32:00;;;;;;;8.88;3.60;;;9.70;99.90;;;;;;5058654;28;20040;-61
2022/05/14 03:35:26;;;;;;;4.93;2.80;;;9.60;99.90;;;;;;5058522;28;20043;-61
2022/05/14 03:38:53;;;;;;;6.90;3.83;;;9.50;99.90;;;;;;5047981;28;20612;-60
2022/05/14 03:42:18;;;;;;;3.22;2.40;;;9.40;99.90;;;;;;5057892;28;20059;-61
2022/05/14 03:45:42;;;;;;;7.28;3.10;;;9.40;99.90;;;;;;5029829;28;20036;-61
2022/05/14 03:49:07;;;;;;;5.47;3.10;;;9.40;99.90;;;;;;5049858;28;20032;-61
2022/05/14 03:52:33;;;;;;;3.33;3.00;;;9.40;99.90;;;;;;5058223;28;20574;-61
2022/05/14 03:55:58;;;;;;;5.53;3.45;;;9.50;99.90;;;;;;5057627;28;20043;-61
2022/05/14 03:59:23;;;;;;;10.75;3.90;;;9.50;99.90;;;;;;5043194;28;20456;-60
2022/05/14 04:02:49;;;;;;;4.50;3.22;;;9.80;99.90;;;;;;5056413;28;20032;-60
2022/05/14 04:06:14;;;;;;;6.13;2.75;;;11.50;99.90;;;;;;5054619;28;20515;-61
2022/05/14 04:09:39;;;;;;;5.07;2.95;;;13.10;98.50;;;;;;5058239;28;20044;-61
2022/05/14 04:12:27;;;;;;;6.93;2.40;;;14.50;89.40;;;;;;5055847;28;20047;-61
2022/05/14 04:14:52;;;;;;;5.53;2.70;;;15.70;75.20;;;;;;5039398;28;20053;-58
2022/05/14 04:17:58;;;;;;;5.25;2.35;;;16.50;68.10;;;;;;5068015;28;20082;-58
2022/05/14 04:21:23;;;;;;;3.88;2.53;;;17.30;59.90;;;;;;5057888;28;20037;-59
2022/05/14 04:24:48;;;;;;;5.10;2.65;;;18.50;50.40;;;;;;5048534;28;20033;-59
2022/05/14 04:28:14;;;;;;;6.63;2.83;;;19.40;47.20;;;;;;5057867;28;20036;-59
2022/05/14 04:31:39;;;;;;;3.53;1.85;;;20.40;38.80;;;;;;5058120;28;20150;-59
2022/05/14 04:35:05;;;;;;;3.30;1.90;;;21.30;34.10;;;;;;5027264;28;20417;-59
2022/05/14 04:38:30;;;;;;;4.82;2.42;;;22.10;30.80;;;;;;5047828;28;20101;-59
2022/05/14 04:41:56;;;;;;;3.65;2.08;;;22.90;28.90;;;;;;5034297;28;20776;-59
2022/05/14 04:45:21;;;;;;;2.30;1.75;;;23.60;27.80;;;;;;5025895;28;20037;-58
2022/05/14 04:48:46;;;;;;;4.35;1.50;;;24.20;21.70;;;;;;5056172;28;20076;-59
2022/05/14 04:52:11;;;;;;;2.13;1.70;;;25.00;18.20;;;;;;5043773;28;20049;-59
2022/05/14 04:55:37;;;;;;;4.70;1.90;;;25.80;21.20;;;;;;5042239;28;20455;-59
2022/05/14 04:59:03;;;;;;;3.45;2.10;;;26.40;16.30;;;;;;5043368;28;20040;-59
2022/05/14 05:05:51;;;;;;;3.45;1.80;;;27.40;11.10;;;;;;5025933;28;20401;-59
2022/05/14 05:09:17;;;;;;;3.20;1.77;;;27.90;12.90;;;;;;5056796;28;20068;-59
2022/05/14 05:12:13;;;;;;;3.45;1.83;;;28.80;10.50;;;;;;5048345;28;20033;-59
2022/05/14 05:14:38;;;;;;;;;;;29.30;12.10;;;;;;5044913;28;20099;-60
2022/05/14 05:17:04;;;;;;;4.13;1.70;;;29.50;6.40;;;;;;5046690;28;19916;-59
2022/05/14 05:19:30;;;;;;;2.85;1.80;;;29.80;13.70;;;;;;5062579;28;20044;-59
2022/05/14 05:21:56;;;;;;;2.85;1.50;;;30.00;13.80;;;;;;5045428;28;20029;-59
2022/05/14 05:24:22;;;;;;;3.67;2.00;;;30.30;12.50;;;;;;5047222;28;20035;-59
2022/05/14 05:26:47;;;;;;;3.10;1.55;;;30.60;11.60;;;;;;5053872;28;20029;-59
2022/05/14 05:29:13;;;;;;;6.82;1.75;;;31.00;10.90;;;;;;5057372;28;20021;-59
2022/05/14 05:31:41;;;;;;;3.97;2.00;;;31.20;9.40;;;;;;5037131;28;20437;-59
2022/05/14 05:34:07;;;;;;;3.53;1.70;;;31.80;9.10;;;;;;5042079;28;20033;-59
2022/05/14 05:36:33;;;;;;;3.03;1.38;;;31.50;8.90;;;;;;5038555;28;20031;-59
2022/05/14 05:38:58;;;;;;;1.95;1.52;;;31.60;8.20;;;;;;5046375;28;20060;-59
2022/05/14 05:41:24;;;;;;;2.58;1.58;;;31.50;8.00;;;;;;5025676;28;20109;-59
2022/05/14 05:44:29;;;;;;;4.53;1.73;;;32.00;7.40;;;;;;5060168;28;20033;-59
2022/05/14 05:47:55;;;;;;;2.50;1.58;;;32.80;2.80;;;;;;5063572;28;20025;-59
2022/05/14 05:51:20;;;;;;;4.68;2.00;;;33.50;2.30;;;;;;5054052;28;20033;-58
2022/05/14 05:58:12;;;;;;;5.68;1.80;;;34.40;1.00;;;;;;5036531;28;20120;-59
2022/05/14 06:01:38;;;;;;;3.78;1.73;;;34.80;1.00;;;;;;5038487;28;20048;-60
2022/05/14 06:04:50;;;;;;;3.78;1.63;;;35.20;1.50;;;;;;5025429;28;20587;-62
2022/05/14 06:08:16;;;;;;;7.50;1.98;;;31.60;1.00;;;;;;5044193;28;20100;-60
2022/05/14 06:11:42;;;;;;;4.65;1.92;;;29.50;1.60;;;;;;5044468;28;20049;-59
2022/05/14 06:14:26;;;;;;;7.90;2.30;;;28.90;2.80;;;;;;5045441;28;20195;-60
2022/05/14 06:16:52;;;;;;;6.00;2.63;;;29.70;5.00;;;;;;5068285;28;21032;-59
2022/05/14 06:19:18;;;;;;;4.55;1.85;;;27.30;5.70;;;;;;5040591;28;20041;-59
2022/05/14 06:21:44;;;;;;;5.28;2.20;;;26.00;7.60;;;;;;5067589;28;20097;-58
2022/05/14 06:24:49;;;;;;;6.22;1.80;;;24.90;8.80;;;;;;5039538;28;20024;-59
2022/05/14 06:28:15;;;;;;;6.45;1.75;;;23.80;8.90;;;;;;5041133;28;20485;-59
2022/05/14 06:31:40;;;;;;;2.90;1.80;;;22.60;11.40;;;;;;5046606;28;20037;-58
2022/05/14 06:35:05;;;;;;;5.53;1.45;;;21.60;13.30;;;;;;5037783;28;20047;-59
2022/05/14 06:38:31;;;;;;;7.30;1.80;;;20.80;15.00;;;;;;5029779;28;20043;-58
2022/05/14 06:41:56;;;;;;;3.35;1.45;;;19.90;16.40;;;;;;5058303;28;20032;-58
2022/05/14 06:45:21;;;;;;;4.32;1.80;;;19.50;18.00;;;;;;5042088;28;20037;-57
2022/05/14 06:48:47;;;;;;;6.40;2.15;;;19.30;18.90;;;;;;5054994;28;20036;-56
2022/05/14 06:52:12;;;;;;;5.07;1.67;;;19.20;19.00;;;;;;5066492;28;20055;-57
2022/05/14 06:55:38;;;;;;;4.35;1.65;;;19.30;19.40;;;;;;5041427;28;20041;-56
2022/05/14 06:59:06;;;;;;;4.55;1.65;;;19.90;18.20;;;;;;5052743;28;20025;-56
2022/05/14 07:02:31;;;;;;;4.75;1.65;;;21.00;17.00;;;;;;5026214;28;20489;-58
2022/05/14 07:09:23;;;;;;;7.38;2.58;;;22.80;14.00;;;;;;5027162;28;20099;-56
2022/05/14 07:12:46;;;;;;;9.80;2.58;;;22.70;12.30;;;;;;5065615;28;20048;-57
2022/05/14 07:16:11;;;;;;;6.80;1.80;;;22.20;13.30;;;;;;5053695;28;20029;-55
2022/05/14 07:19:37;;;;;;;4.03;1.95;;;22.40;13.20;;;;;;5041017;28;20504;-54
2022/05/14 07:23:02;;;;;;;7.95;2.10;;;21.80;14.00;;;;;;5053658;28;20033;-55
2022/05/14 07:26:28;;;;;;;7.78;2.40;;;21.40;14.90;;;;;;5029089;28;20092;-54
2022/05/14 07:29:53;;;;;;;7.53;2.30;;;21.40;15.50;;;;;;5038023;28;20029;-50
2022/05/14 07:33:18;;;;;;;5.30;2.17;;;21.10;16.20;;;;;;5056146;28;20044;-51
2022/05/14 07:36:44;;;;;;;6.20;2.17;;;20.70;18.00;;;;;;5029220;28;20405;-53
2022/05/14 07:40:15;;;;;;;11.55;2.35;;;20.50;18.70;;;;;;5048782;28;20484;-51
2022/05/14 07:43:42;;;;;;;5.72;1.70;;;20.40;19.20;;;;;;5029111;28;20029;-50
2022/05/14 07:47:06;;;;;;;8.68;2.00;;;20.20;20.30;;;;;;5056834;28;20055;-51
2022/05/14 07:50:31;;;;;;;4.80;1.70;;;20.20;20.40;;;;;;5040844;28;20072;-47
2022/05/14 07:53:56;;;;;;;6.53;2.03;;;20.30;20.70;;;;;;5029951;28;20386;-49
2022/05/14 07:57:22;;;;;;;7.57;2.60;;;20.40;20.50;;;;;;5066178;28;20127;-47
2022/05/14 08:00:47;;;;;;;10.45;2.70;;;20.40;20.80;;;;;;5040138;28;20036;-49
2022/05/14 08:04:13;;;;;;;5.97;2.28;;;20.60;20.80;;;;;;5028935;28;20112;-50
2022/05/14 08:07:38;;;;;;;4.95;1.65;;;20.60;20.30;;;;;;5034552;28;20091;-50
2022/05/14 08:11:03;;;;;;;6.97;2.20;;;20.70;20.30;;;;;;5038858;28;20055;-52
2022/05/14 08:14:30;;;;;;;8.73;2.50;;;20.70;20.30;;;;;;5041544;28;20064;-50
2022/05/14 08:17:54;;;;;;;6.03;2.17;;;20.70;20.50;;;;;;5034489;28;20516;-49
2022/05/14 08:24:48;;;;;;;6.82;2.53;;;20.80;20.50;;;;;;5036985;28;20037;-49
2022/05/14 08:28:13;;;;;;;4.68;2.17;;;21.00;20.40;;;;;;5046732;28;20029;-50
2022/05/14 08:31:39;;;;;;;7.53;2.55;;;21.00;20.30;;;;;;5028779;28;20473;-50
2022/05/14 08:35:04;;;;;;;7.30;2.40;;;20.90;20.20;;;;;;5031736;28;20048;-47
2022/05/14 08:38:29;;;;;;;5.63;2.03;;;20.70;20.50;;;;;;5053913;28;20055;-48
2022/05/14 08:41:55;;;;;;;5.63;2.38;;;20.60;20.70;;;;;;5046695;28;20033;-50
2022/05/14 08:45:20;;;;;;;3.50;2.00;;;20.60;20.90;;;;;;5051963;28;20501;-51
2022/05/14 08:49:01;;;;;;;8.73;2.28;;;20.70;21.20;;;;;;5044077;28;20107;-48
2022/05/14 08:52:28;;;;;;;6.28;2.20;;;20.90;20.30;;;;;;5049088;28;20459;-54
2022/05/14 08:56:04;;;;;;;5.30;2.03;;;21.20;20.00;;;;;;5052201;28;20127;-53
2022/05/14 08:59:47;;;;;;;11.07;2.40;;;21.90;18.30;;;;;;5036431;28;20034;-51
2022/05/14 09:03:15;;;;;;;5.88;1.90;;;22.30;17.60;;;;;;5045733;28;20033;-53
2022/05/14 09:06:40;;;;;;;6.00;2.35;;;23.20;16.30;;;;;;5047531;28;20047;-51
2022/05/14 09:10:06;;;;;;;5.95;2.03;;;24.10;14.20;;;;;;5040983;28;20032;-54
2022/05/14 09:13:31;;;;;;;5.72;1.73;;;25.30;12.10;;;;;;5040960;28;20077;-53
2022/05/14 09:16:59;;;;;;;9.40;2.47;;;26.00;10.00;;;;;;5042951;28;20685;-52
2022/05/14 09:20:25;;;;;;;9.02;2.45;;;26.50;8.80;;;;;;5056447;28;20032;-53
2022/05/14 09:23:11;;;;;;;6.47;2.20;;;26.80;7.20;;;;;;5045620;28;20045;-54
2022/05/14 09:25:40;;;;;;;4.85;2.08;;;26.50;9.30;;;;;;5067435;28;20031;-50
2022/05/14 09:28:31;;;;;;;6.97;2.28;;;26.40;8.20;;;;;;5044457;28;20056;-54
2022/05/14 09:31:42;;;;;;;12.32;2.90;;;26.00;7.90;;;;;;5025968;28;20029;-53
2022/05/14 09:35:08;;;;;;;6.90;2.10;;;25.70;7.60;;;;;;5055850;28;20032;-53
2022/05/14 09:38:36;;;;;;;4.38;1.67;;;26.30;7.20;;;;;;5028851;28;20048;-54
2022/05/14 09:42:02;;;;;;;6.90;1.95;;;27.80;5.30;;;;;;5049672;28;20116;-53
2022/05/14 09:45:26;;;;;;;7.70;2.28;;;27.10;5.70;;;;;;5069462;28;20036;-52
2022/05/14 09:48:55;;;;;;;5.63;1.90;;;26.30;7.40;;;;;;5061947;28;20043;-50
2022/05/14 09:52:21;;;;;;;6.13;2.92;;;25.60;8.10;;;;;;5054699;28;20405;-53
2022/05/14 09:55:46;;;;;;;6.03;2.45;;;24.90;8.00;;;;;;5060902;28;20489;-53
2022/05/14 09:59:26;;;;;;;6.50;2.53;;;24.90;8.50;;;;;;5067326;28;20508;-55
2022/05/14 10:02:44;;;;;;;6.40;2.33;;;25.20;8.20;;;;;;5046809;28;20124;-48
2022/05/14 10:05:51;;;;;;;4.68;2.33;;;24.60;7.90;;;;;;5060637;28;20124;-55
2022/05/14 10:09:06;;;;;;;8.73;2.25;;;23.80;9.30;;;;;;5031739;28;20041;-51
2022/05/14 10:12:46;;;;;;;6.25;2.17;;;23.40;10.60;;;;;;5048635;28;20052;-51
2022/05/14 10:15:45;;;;;;;5.60;1.90;;;23.30;10.80;;;;;;5029392;28;20033;-61
2022/05/14 10:18:33;;;;;;;4.95;2.10;;;23.40;9.80;;;;;;5045688;28;20055;-61
2022/05/14 10:21:38;;;;;;;9.45;2.38;;;23.30;9.80;;;;;;5032069;28;20079;-61
2022/05/14 10:28:11;;;;;;;8.10;1.90;;;23.10;10.00;;;;;;5051006;28;20391;-61
2022/05/14 10:31:36;;;;;;;8.15;2.78;;;23.00;9.20;;;;;;5056742;28;20103;-61
2022/05/14 10:35:08;;;;;;;7.18;2.42;;;23.00;9.20;;;;;;5034410;28;20033;-61
2022/05/14 10:37:53;;;;;;;7.10;2.22;;;23.00;9.20;;;;;;5048975;28;20041;-61
2022/05/14 10:41:21;;;;;;;6.90;2.27;;;22.80;9.10;;;;;;5047073;28;20048;-61
2022/05/14 10:44:30;;;;;;;6.25;2.17;;;22.60;8.60;;;;;;5047964;28;20037;-61
2022/05/14 10:47:55;;;;;;;9.55;2.15;;;22.50;8.60;;;;;;5042506;28;20136;-62
2022/05/14 10:51:21;;;;;;;4.50;1.70;;;22.40;8.90;;;;;;5031984;28;20048;-61
2022/05/14 10:54:46;;;;;;;5.85;2.47;;;22.50;8.40;;;;;;5035846;28;20046;-61
2022/05/14 10:58:14;;;;;;;7.38;2.25;;;22.60;8.30;;;;;;5044635;28;20037;-62
2022/05/14 11:01:32;;;;;;;7.50;2.00;;;22.60;7.90;;;;;;5035802;28;20064;-61
2022/05/14 11:04:40;;;;;;;7.15;2.15;;;22.80;7.50;;;;;;5055982;28;20412;-61
2022/05/14 11:08:05;;;;;;;7.10;2.03;;;22.80;7.60;;;;;;5052229;28;20587;-59
2022/05/14 11:11:37;;;;;;;9.70;2.70;;;23.00;7.60;;;;;;5043134;28;20045;-51
2022/05/14 11:15:02;;;;;;;7.10;2.42;;;23.20;7.60;;;;;;5039327;28;20061;-57
2022/05/14 11:17:38;;;;;;;8.50;2.30;;;23.10;7.50;;;;;;5034074;28;20033;-55
2022/05/14 11:20:04;;;;;;;8.90;2.50;;;23.10;7.80;;;;;;5051655;28;20123;-58
2022/05/14 11:22:52;;;;;;;8.35;2.85;;;23.20;7.90;;;;;;5033648;28;20011;-56
2022/05/14 11:25:19;;;;;;;7.90;2.70;;;22.90;7.90;;;;;;5039960;28;20025;-57
2022/05/14 11:28:05;;;;;;;7.30;2.38;;;22.70;8.50;;;;;;5035971;28;20076;-55
2022/05/14 11:30:32;;;;;;;6.77;2.27;;;22.60;8.30;;;;;;5040351;28;20033;-54
2022/05/14 11:33:27;;;;;;;6.38;2.08;;;22.50;8.90;;;;;;5035256;28;20124;-55
2022/05/14 11:36:12;;;;;;;5.90;2.15;;;22.60;8.90;;;;;;5035459;28;20040;-54
2022/05/14 11:39:44;;;;;;;9.57;2.30;;;22.60;9.00;;;;;;5036378;28;20049;-55
2022/05/14 11:43:09;;;;;;;7.28;2.33;;;22.60;9.10;;;;;;5041434;28;20029;-54
2022/05/14 11:46:07;;;;;;;9.07;3.08;;;22.70;8.70;;;;;;5051339;28;20766;-55
2022/05/14 11:49:53;;;;;;;5.57;2.13;;;22.70;8.40;;;;;;5057462;28;20042;-56
2022/05/14 11:52:57;;;;;;;9.45;2.20;;;22.50;8.90;;;;;;5045018;28;20041;-53
2022/05/14 11:56:26;;;;;;;6.63;2.10;;;22.40;9.20;;;;;;5041686;28;20037;-54
2022/05/14 12:00:03;;;;;;;6.28;2.33;;;22.30;9.70;;;;;;5055980;28;20044;-57
2022/05/14 12:03:12;;;;;;;5.93;1.83;;;22.70;10.00;;;;;;5058547;28;20633;-56
2022/05/14 12:06:37;;;;;;;6.53;2.30;;;23.00;10.00;;;;;;5033018;28;20049;-56
2022/05/14 12:09:45;;;;;;;10.55;2.50;;;23.10;9.20;;;;;;5057498;28;20520;-53
2022/05/14 12:12:43;;;;;;;7.03;2.70;;;22.80;9.40;;;;;;5030064;28;20049;-56
2022/05/14 12:15:12;;;;;;;9.80;2.33;;;22.70;9.60;;;;;;5028688;28;20032;-54
2022/05/14 12:18:17;;;;;;;7.75;2.10;;;22.70;9.90;;;;;;5046106;28;20089;-56
2022/05/14 12:21:43;;;;;;;10.73;2.38;;;22.90;10.20;;;;;;5040648;28;20030;-57
2022/05/14 12:25:11;;;;;;;7.30;2.05;;;22.80;9.90;;;;;;5031556;28;20044;-56
2022/05/14 12:28:37;;;;;;;6.13;2.10;;;22.60;9.80;;;;;;5033380;28;20669;-54
2022/05/14 12:35:35;;;;;;;4.55;2.20;;;22.70;10.70;;;;;;5029666;28;20094;-53
2022/05/14 12:39:06;;;;;;;4.75;1.90;;;22.70;10.20;;;;;;5030727;28;20038;-56
2022/05/14 12:42:33;;;;;;;6.10;2.13;;;23.00;10.10;;;;;;5063105;28;20032;-54
2022/05/14 12:45:57;;;;;;;7.38;2.97;;;23.20;9.50;;;;;;5034691;28;20068;-57
2022/05/14 12:49:23;;;;;;;8.38;2.17;;;23.00;9.50;;;;;;5032997;28;20048;-54
2022/05/14 12:52:48;;;;;;;4.93;2.30;;;22.80;9.60;;;;;;5035517;28;20095;-56
2022/05/14 12:56:19;;;;;;;7.13;2.03;;;22.80;9.80;;;;;;5043772;28;20087;-55
2022/05/14 12:59:45;;;;;;;7.05;2.30;;;23.00;10.00;;;;;;5048139;28;20116;-55
2022/05/14 13:03:13;;;;;;;8.38;2.70;;;23.20;9.50;;;;;;5033827;28;20033;-58
2022/05/14 13:06:38;;;;;;;8.50;2.70;;;23.10;9.50;;;;;;5056289;28;20054;-54
2022/05/14 13:10:04;;;;;;;6.85;2.15;;;22.90;9.90;;;;;;5043088;28;20029;-56
2022/05/14 13:13:29;;;;;;;8.02;2.35;;;22.80;9.80;;;;;;5062586;28;20568;-57
2022/05/14 13:16:18;;;;;;;6.05;2.40;;;22.90;10.20;;;;;;5062727;28;20033;-56
2022/05/14 13:19:55;;;;;;;5.47;2.10;;;22.90;10.20;;;;;;5032583;28;20124;-56
2022/05/14 13:23:21;;;;;;;9.02;2.80;;;23.10;10.10;;;;;;5056662;28;20273;-56
2022/05/14 13:27:01;;;;;;;5.53;2.20;;;23.10;9.90;;;;;;5057312;28;20044;-54
2022/05/14 13:30:30;;;;;;;7.90;2.40;;;23.00;9.80;;;;;;5039793;28;20405;-57
2022/05/14 13:33:50;;;;;;;7.40;2.00;;;22.70;10.20;;;;;;5037835;28;20044;-55
2022/05/14 13:37:16;;;;;;;8.57;2.30;;;22.60;10.60;;;;;;5052227;28;20040;-57
2022/05/14 13:40:47;;;;;;;8.00;2.30;;;22.60;10.60;;;;;;5040998;28;20033;-57
2022/05/14 13:44:15;;;;;;;9.30;2.50;;;22.70;11.10;;;;;;5034507;28;20029;-54
2022/05/14 13:47:40;;;;;;;7.80;2.10;;;22.60;10.90;;;;;;5054636;28;20607;-54
2022/05/14 13:51:15;;;;;;;6.25;2.35;;;22.80;10.30;;;;;;5045963;28;20039;-55
2022/05/14 13:54:49;;;;;;;6.10;2.40;;;22.90;10.70;;;;;;5053624;28;20045;-55
2022/05/14 13:58:14;;;;;;;8.65;3.20;;;23.00;10.10;;;;;;5044405;28;20030;-57
2022/05/14 14:01:43;;;;;;;9.88;2.45;;;22.80;10.70;;;;;;5050699;28;20495;-53
2022/05/14 14:05:08;;;;;;;7.25;2.80;;;22.80;10.80;;;;;;5036565;28;20037;-54
2022/05/14 14:08:34;;;;;;;7.82;2.20;;;22.60;11.20;;;;;;5058645;28;20086;-55
2022/05/14 14:12:02;;;;;;;6.82;2.08;;;22.60;12.00;;;;;;5054863;28;20413;-56
2022/05/14 14:15:28;;;;;;;6.60;2.33;;;22.50;11.90;;;;;;5039529;28;20431;-56
2022/05/14 14:18:53;;;;;;;9.05;2.80;;;22.40;11.80;;;;;;5044851;28;20326;-55
2022/05/14 14:22:22;;;;;;;4.55;2.05;;;22.10;12.20;;;;;;5055317;28;20619;-55
2022/05/14 14:25:26;;;;;;;;;;;21.90;12.80;;;;;;5056251;28;20444;-57
2022/05/14 14:28:52;;;;;;;6.60;2.35;;;21.80;13.20;;;;;;5041023;28;20329;-52
2022/05/14 14:32:17;;;;;;;9.15;2.90;;;21.70;13.10;;;;;;5065717;28;20048;-53
2022/05/14 14:35:43;;;;;;;6.82;2.42;;;21.60;13.40;;;;;;5049873;28;20548;-55
2022/05/14 14:39:08;;;;;;;8.45;2.90;;;21.70;13.40;;;;;;5060708;28;20612;-55
2022/05/14 14:42:33;;;;;;;11.25;2.80;;;21.60;13.30;;;;;;5059645;28;20060;-52
2022/05/14 14:45:46;;;;;;;7.82;2.45;;;21.60;13.70;;;;;;5046161;28;20033;-54
2022/05/14 14:49:13;;;;;;;10.05;2.78;;;21.40;13.90;;;;;;5053474;28;20890;-54
2022/05/14 14:52:36;;;;;;;6.50;2.17;;;21.40;14.50;;;;;;5059068;28;20041;-56
2022/05/14 14:56:02;;;;;;;7.45;1.95;;;21.40;14.20;;;;;;5062403;28;20042;-53
2022/05/14 14:59:27;;;;;;;10.27;2.15;;;21.40;14.70;;;;;;5043385;28;20036;-56
2022/05/14 15:02:56;;;;;;;6.68;2.75;;;21.40;14.60;;;;;;5059286;28;20125;-56
2022/05/14 15:06:21;;;;;;;6.50;2.42;;;21.50;14.60;;;;;;5063476;28;20032;-53
2022/05/14 15:09:46;;;;;;;7.25;2.50;;;21.40;14.50;;;;;;5048399;28;20460;-56
2022/05/14 15:13:12;;;;;;;9.55;3.03;;;21.40;14.90;;;;;;5064597;28;20110;-54
2022/05/14 15:16:37;;;;;;;8.20;2.90;;;21.30;14.60;;;;;;5044704;28;20417;-52
2022/05/14 15:20:03;;;;;;;7.60;1.88;;;21.20;15.00;;;;;;5049748;28;20039;-56
2022/05/14 15:23:28;;;;;;;10.00;2.38;;;21.00;15.00;;;;;;5058674;28;20060;-51
2022/05/14 15:26:53;;;;;;;9.32;3.13;;;21.00;15.50;;;;;;5058779;28;20032;-53
2022/05/14 15:30:18;;;;;;;10.93;2.90;;;21.10;14.90;;;;;;5057384;28;20470;-53
2022/05/14 15:33:44;;;;;;;12.95;3.08;;;21.20;15.40;;;;;;5029907;28;20045;-55
2022/05/14 15:37:09;;;;;;;9.05;2.55;;;21.10;15.00;;;;;;5058807;28;20502;-56
2022/05/14 15:40:36;;;;;;;7.22;2.50;;;21.00;15.30;;;;;;5032326;28;20037;-52
2022/05/14 15:44:00;;;;;;;7.20;2.15;;;21.00;15.50;;;;;;5054379;28;20033;-54
2022/05/14 15:47:25;;;;;;;9.13;2.22;;;21.20;15.60;;;;;;5058245;28;20110;-57
2022/05/14 15:50:51;;;;;;;9.98;2.38;;;21.20;15.40;;;;;;5046089;28;20037;-53
2022/05/14 15:54:19;;;;;;;5.65;2.60;;;21.20;14.50;;;;;;5052502;28;20047;-52
2022/05/14 15:57:44;;;;;;;8.73;2.33;;;21.10;14.90;;;;;;5067805;28;20040;-53
2022/05/14 16:01:12;;;;;;;9.07;3.05;;;20.90;15.30;;;;;;5051963;28;20051;-53
2022/05/14 16:04:36;;;;;;;5.32;2.22;;;20.80;14.90;;;;;;5048424;28;20087;-56
2022/05/14 16:08:00;;;;;;;8.85;2.47;;;20.60;15.30;;;;;;5051053;28;20061;-54
2022/05/14 16:15:51;;;;;;;5.75;3.20;;;20.50;16.10;;;;;;5038151;28;20056;-51
2022/05/14 16:17:22;;;;;;;9.77;3.33;;;20.40;15.80;;;;;;5056138;28;20053;-60
2022/05/14 16:19:48;;;;;;;7.82;3.22;;;20.20;15.90;;;;;;5059139;28;20097;-60
2022/05/14 16:22:13;;;;;;;8.52;3.65;;;20.10;16.20;;;;;;5049481;28;20036;-60
2022/05/14 16:24:39;;;;;;;6.97;3.55;;;19.90;16.50;;;;;;5058720;28;20025;-60
2022/05/14 16:27:05;;;;;;;9.40;3.88;;;19.80;16.20;;;;;;5068310;28;20033;-60
2022/05/14 16:30:09;;;;;;;13.07;3.67;;;19.70;16.30;;;;;;5052110;28;20029;-60
2022/05/14 16:32:20;;;;;;;9.38;4.20;;;19.60;16.30;;;;;;5051359;28;20131;-60
2022/05/14 16:34:45;;;;;;;11.65;4.18;;;19.60;16.40;;;;;;5058670;28;20075;-60
2022/05/14 16:37:11;;;;;;;7.38;3.00;;;19.70;16.80;;;;;;5048802;28;20041;-60
2022/05/14 16:39:36;;;;;;;5.47;3.30;;;19.60;16.70;;;;;;5058953;28;20052;-61
2022/05/14 16:42:02;;;;;;;8.82;2.88;;;19.60;16.70;;;;;;5068681;28;20111;-60
2022/05/14 16:44:28;;;;;;;10.52;2.65;;;19.50;16.70;;;;;;5050181;28;20438;-60
2022/05/14 16:46:53;;;;;;;6.97;2.65;;;19.40;16.80;;;;;;5068646;28;20502;-62
2022/05/14 16:49:19;;;;;;;5.50;1.85;;;19.30;16.90;;;;;;5050517;28;20020;-62
2022/05/14 16:51:44;;;;;;;4.75;2.10;;;19.20;17.30;;;;;;5068445;28;20082;-62
2022/05/14 16:54:09;;;;;;;5.28;2.15;;;19.10;17.40;;;;;;5048377;28;20531;-62
2022/05/14 16:56:35;;;;;;;6.05;2.22;;;19.00;17.60;;;;;;5068792;28;20040;-63
2022/05/14 16:59:00;;;;;;;5.25;2.10;;;19.00;17.60;;;;;;5047562;28;20588;-62
2022/05/14 17:01:26;;;;;;;4.03;1.75;;;19.10;17.70;;;;;;5061233;28;20507;-62
2022/05/14 17:03:51;;;;;;;4.68;1.90;;;19.10;17.50;;;;;;5046419;28;20052;-62
2022/05/14 17:06:18;;;;;;;6.15;2.58;;;19.10;17.60;;;;;;5068497;28;20036;-62
2022/05/14 17:08:43;;;;;;;6.53;1.75;;;19.10;17.90;;;;;;5046959;28;20049;-62
2022/05/14 17:11:09;;;;;;;3.90;1.73;;;19.20;18.00;;;;;;5066162;28;20052;-62